Time;durP1;ratioP1;P1;durP2;ratioP2;P2;SDS_P1;SDS_P2;PMS_P1;PMS_P2;Temp;Humidity;BMP_temperature;BMP_pressure;BME280_temperature;BME280_humidity;BME280_pressure;Samples;Min_cycle;Max_cycle;Signal;HPM_P1;HPM_P2
2023/09/01 00:01:08;;;;;;;0.00;0.00;;;;;;;16.44;100.00;101085.25;5073705;28;20511;-44
2023/09/01 00:03:33;;;;;;;0.00;0.00;;;;;;;16.37;100.00;101079.00;5070899;28;20037;-46
2023/09/01 00:06:02;;;;;;;0.00;0.00;;;;;;;16.37;100.00;101078.16;5080079;28;20021;-47
2023/09/01 00:08:27;;;;;;;0.00;0.00;;;;;;;16.35;100.00;101081.13;5070340;28;20363;-48
2023/09/01 00:10:53;;;;;;;0.00;0.00;;;;;;;16.35;100.00;101086.53;5069902;28;20108;-45
2023/09/01 00:13:18;;;;;;;0.00;0.00;;;;;;;16.34;100.00;101089.47;5070288;28;20017;-47
2023/09/01 00:15:43;;;;;;;0.00;0.00;;;;;;;16.39;100.00;101086.94;5070324;28;20024;-51
2023/09/01 00:18:09;;;;;;;0.00;0.00;;;;;;;16.43;100.00;101089.03;5070342;28;20036;-47
2023/09/01 00:20:34;;;;;;;0.00;0.00;;;;;;;16.49;100.00;101097.38;5070788;28;20035;-48
2023/09/01 00:23:02;;;;;;;0.00;0.00;;;;;;;16.45;100.00;101100.47;5070114;28;20012;-45
2023/09/01 00:25:27;;;;;;;0.00;0.00;;;;;;;16.50;100.00;101099.84;5071009;28;20171;-47
2023/09/01 00:27:53;;;;;;;0.00;0.00;;;;;;;16.54;100.00;101097.56;5070260;28;20133;-47
2023/09/01 00:30:18;;;;;;;0.00;0.00;;;;;;;16.55;100.00;101105.47;5070245;28;20048;-48
2023/09/01 00:32:43;;;;;;;0.00;0.00;;;;;;;16.54;100.00;101100.28;5052115;28;20024;-49
2023/09/01 00:35:09;;;;;;;0.00;0.00;;;;;;;16.46;100.00;101094.03;5070551;28;20021;-46
2023/09/01 00:37:34;;;;;;;0.00;0.00;;;;;;;16.46;100.00;101090.47;5070713;28;20086;-48
2023/09/01 00:39:59;;;;;;;0.00;0.00;;;;;;;16.43;100.00;101089.03;5070317;28;20025;-48
2023/09/01 00:42:25;;;;;;;0.00;0.00;;;;;;;16.40;100.00;101091.31;5074342;28;20043;-48
2023/09/01 00:44:50;;;;;;;0.00;0.00;;;;;;;16.36;100.00;101087.38;5057363;28;20037;-45
2023/09/01 00:47:17;;;;;;;0.00;0.00;;;;;;;16.27;100.00;101078.59;5070420;28;20037;-49
2023/09/01 00:49:43;;;;;;;0.00;0.00;;;;;;;16.22;100.00;101082.00;5070052;28;20428;-47
2023/09/01 00:52:08;;;;;;;0.00;0.00;;;;;;;16.14;100.00;101089.50;5069751;28;20077;-46
2023/09/01 00:54:34;;;;;;;0.00;0.00;;;;;;;16.08;100.00;101090.38;5069927;28;20028;-48
2023/09/01 00:57:00;;;;;;;0.00;0.00;;;;;;;16.05;100.00;101090.78;5070190;28;20032;-47
2023/09/01 00:59:25;;;;;;;0.00;0.00;;;;;;;16.02;100.00;101087.44;5072383;28;20032;-48
2023/09/01 01:01:51;;;;;;;0.00;0.00;;;;;;;16.08;100.00;101080.34;5076225;28;20060;-48
2023/09/01 01:04:20;;;;;;;0.00;0.00;;;;;;;16.10;100.00;101077.41;5072844;28;20032;-49
2023/09/01 01:07:31;;;;;;;0.00;0.00;;;;;;;16.16;100.00;101080.09;5051600;28;20204;-48
2023/09/01 01:10:18;;;;;;;0.00;0.00;;;;;;;16.19;100.00;101082.41;5056307;28;20024;-46
2023/09/01 01:12:49;;;;;;;;;;;;;;;16.22;100.00;101092.03;5074360;28;20066;-51
2023/09/01 01:15:15;;;;;;;0.00;0.00;;;;;;;16.27;100.00;101081.31;5039947;28;19916;-49
2023/09/01 01:17:44;;;;;;;0.00;0.00;;;;;;;16.15;100.00;101080.34;5055983;28;20063;-47
2023/09/01 01:20:16;;;;;;;0.00;0.00;;;;;;;16.06;100.00;101087.03;5077240;28;20032;-47
2023/09/01 01:22:42;;;;;;;0.00;0.00;;;;;;;16.05;100.00;101085.38;5080791;28;20032;-48
2023/09/01 01:25:09;;;;;;;0.00;0.00;;;;;;;16.06;100.00;101089.75;5080369;28;20047;-47
2023/09/01 01:27:35;;;;;;;0.00;0.00;;;;;;;16.06;100.00;101081.59;5051898;28;20033;-48
2023/09/01 01:30:00;;;;;;;0.00;0.00;;;;;;;16.09;100.00;101081.16;5076514;28;20024;-45
2023/09/01 01:32:26;;;;;;;0.00;0.00;;;;;;;16.12;100.00;101081.59;5064679;28;20032;-45
2023/09/01 01:35:31;;;;;;;0.00;0.00;;;;;;;16.15;100.00;101074.91;5057257;28;20060;-49
2023/09/01 01:38:04;;;;;;;0.00;0.00;;;;;;;16.17;100.00;101070.94;5073951;28;20032;-48
2023/09/01 01:40:30;;;;;;;0.00;0.00;;;;;;;16.17;100.00;101083.69;5073481;28;20020;-49
2023/09/01 01:42:56;;;;;;;0.00;0.00;;;;;;;16.15;100.00;101080.34;5055368;28;20035;-51
2023/09/01 01:45:22;;;;;;;0.00;0.00;;;;;;;16.14;100.00;101081.38;5081994;28;20029;-49
2023/09/01 01:47:49;;;;;;;0.00;0.00;;;;;;;16.18;100.00;101077.19;5084223;28;20028;-48
2023/09/01 01:50:14;;;;;;;0.00;0.00;;;;;;;16.17;100.00;101072.81;5066656;28;20024;-46
2023/09/01 01:52:40;;;;;;;0.00;0.00;;;;;;;16.15;100.00;101067.59;5073264;28;20035;-47
2023/09/01 01:55:07;;;;;;;0.00;0.00;;;;;;;16.17;100.00;101078.25;5084878;28;20111;-49
2023/09/01 01:57:33;;;;;;;0.00;0.00;;;;;;;16.17;100.00;101080.97;5084019;28;20028;-45
2023/09/01 01:59:58;;;;;;;0.00;0.00;;;;;;;16.05;100.00;101066.38;5078207;28;20498;-53
2023/09/01 02:02:23;;;;;;;0.00;0.00;;;;;;;16.02;100.00;101065.72;5080986;28;20048;-46
2023/09/01 02:04:49;;;;;;;0.00;0.00;;;;;;;16.01;100.00;101061.38;5077544;28;20024;-48
2023/09/01 02:07:14;;;;;;;0.00;0.00;;;;;;;16.02;100.00;101054.88;5083714;28;20070;-45
2023/09/01 02:09:39;;;;;;;0.00;0.00;;;;;;;15.97;100.00;101059.28;5073854;28;20269;-47
2023/09/01 02:12:05;;;;;;;0.00;0.00;;;;;;;15.92;100.00;101054.47;5073462;28;20363;-45
2023/09/01 02:14:34;;;;;;;0.00;0.00;;;;;;;15.95;100.00;101067.63;5068781;28;20174;-50
2023/09/01 02:16:59;;;;;;;0.00;0.00;;;;;;;16.00;100.00;101067.81;5072782;28;20056;-48
2023/09/01 02:19:27;;;;;;;0.00;0.00;;;;;;;15.87;100.00;101073.28;5072698;28;20107;-49
2023/09/01 02:21:53;;;;;;;0.00;0.00;;;;;;;15.89;100.00;101082.03;5073416;28;20020;-46
2023/09/01 02:24:18;;;;;;;0.00;0.00;;;;;;;15.89;100.00;101071.19;5073035;28;20398;-48
2023/09/01 02:26:44;;;;;;;0.00;0.00;;;;;;;15.88;100.00;101074.97;5053105;28;20148;-48
2023/09/01 02:29:09;;;;;;;0.00;0.00;;;;;;;15.86;100.00;101068.06;5062227;28;20455;-45
2023/09/01 02:31:35;;;;;;;0.00;0.00;;;;;;;15.85;100.00;101069.97;5073221;28;20036;-45
2023/09/01 02:34:00;;;;;;;0.00;0.00;;;;;;;15.80;100.00;101057.03;5073775;28;20024;-45
2023/09/01 02:36:29;;;;;;;0.00;0.00;;;;;;;15.76;100.00;101057.66;5074141;28;20028;-46
2023/09/01 02:38:55;;;;;;;0.00;0.00;;;;;;;15.74;100.00;101059.72;5073704;28;20076;-49
2023/09/01 02:41:22;;;;;;;0.00;0.00;;;;;;;15.70;100.00;101061.22;5073364;28;20020;-48
2023/09/01 02:43:48;;;;;;;0.00;0.00;;;;;;;15.62;100.00;101069.53;5072667;28;20024;-48
2023/09/01 02:46:13;;;;;;;0.00;0.00;;;;;;;15.63;100.00;101061.16;5072415;28;20024;-46
2023/09/01 02:48:39;;;;;;;0.00;0.00;;;;;;;15.66;100.00;101063.47;5072158;28;20024;-47
2023/09/01 02:51:04;;;;;;;0.00;0.00;;;;;;;15.58;100.00;101069.94;5072115;28;20040;-47
2023/09/01 02:53:34;;;;;;;0.00;0.00;;;;;;;15.61;100.00;101076.00;5076749;28;20035;-48
2023/09/01 02:55:59;;;;;;;0.00;0.00;;;;;;;15.58;100.00;101069.09;5078732;28;20039;-47
2023/09/01 02:58:25;;;;;;;0.00;0.00;;;;;;;15.56;100.00;101061.19;5079515;28;20382;-47
2023/09/01 03:00:51;;;;;;;0.00;0.00;;;;;;;15.55;100.00;101059.50;5085576;28;20153;-48
2023/09/01 03:03:19;;;;;;;0.00;0.00;;;;;;;15.52;100.00;101059.94;5082609;28;20402;-47
2023/09/01 03:05:44;;;;;;;0.00;0.00;;;;;;;15.56;100.00;101063.91;5085331;28;20048;-47
2023/09/01 03:08:10;;;;;;;0.00;0.00;;;;;;;15.59;100.00;101066.19;5075773;28;20052;-51
2023/09/01 03:10:37;;;;;;;0.00;0.00;;;;;;;15.59;100.00;101060.75;5064844;28;20041;-48
2023/09/01 03:13:03;;;;;;;0.00;0.00;;;;;;;15.62;100.00;101064.13;5077923;28;20028;-48
2023/09/01 03:15:28;;;;;;;0.00;0.00;;;;;;;15.69;100.00;101064.94;5081803;28;20024;-47
2023/09/01 03:17:53;;;;;;;0.00;0.00;;;;;;;15.71;100.00;101060.16;5077348;28;20036;-45
2023/09/01 03:20:19;;;;;;;0.00;0.00;;;;;;;15.71;100.00;101065.59;5071727;28;20151;-46
2023/09/01 03:22:44;;;;;;;0.00;0.00;;;;;;;15.71;100.00;101069.13;5053723;28;20064;-49
2023/09/01 03:25:09;;;;;;;0.00;0.00;;;;;;;15.67;100.00;101064.31;5071036;28;20086;-47
2023/09/01 03:27:37;;;;;;;0.00;0.00;;;;;;;15.67;100.00;101064.31;5071293;28;20032;-46
2023/09/01 03:30:03;;;;;;;0.00;0.00;;;;;;;15.67;100.00;101061.59;5071049;28;20486;-47
2023/09/01 03:32:29;;;;;;;0.00;0.00;;;;;;;15.66;100.00;101058.03;5053143;28;20032;-49
2023/09/01 03:34:55;;;;;;;0.00;0.00;;;;;;;15.64;100.00;101059.28;5070941;28;20032;-48
2023/09/01 03:37:20;;;;;;;0.00;0.00;;;;;;;15.58;100.00;101072.63;5070979;28;20103;-47
2023/09/01 03:39:46;;;;;;;0.00;0.00;;;;;;;15.57;100.00;101072.88;5053340;28;20050;-48
2023/09/01 03:42:12;;;;;;;0.00;0.00;;;;;;;15.58;100.00;101069.94;5070679;28;20078;-51
2023/09/01 03:44:37;;;;;;;0.00;0.00;;;;;;;15.58;100.00;101069.94;5071194;28;20106;-48
2023/09/01 03:47:03;;;;;;;0.00;0.00;;;;;;;15.57;100.00;101068.28;5070711;28;20043;-50
2023/09/01 03:49:29;;;;;;;0.00;0.00;;;;;;;15.56;100.00;101073.91;5070988;28;20028;-49
2023/09/01 03:51:54;;;;;;;0.00;0.00;;;;;;;15.53;100.00;101069.75;5070933;28;20437;-47
2023/09/01 03:54:20;;;;;;;0.00;0.00;;;;;;;15.54;100.00;101068.69;5074412;28;20083;-50
2023/09/01 03:56:45;;;;;;;0.00;0.00;;;;;;;15.53;100.00;101056.19;5071084;28;20040;-49
2023/09/01 03:59:10;;;;;;;0.00;0.00;;;;;;;15.47;100.00;101057.00;5070278;28;20032;-49
2023/09/01 04:01:36;;;;;;;0.00;0.00;;;;;;;15.44;100.00;101057.44;5069785;28;20108;-47
2023/09/01 04:04:01;;;;;;;0.00;0.00;;;;;;;15.38;100.00;101063.69;5069419;28;20040;-45
2023/09/01 04:06:27;;;;;;;0.00;0.00;;;;;;;15.40;100.00;101055.34;5070600;28;20051;-44
2023/09/01 04:08:52;;;;;;;0.00;0.00;;;;;;;15.36;100.00;101050.34;5070410;28;20082;-47
2023/09/01 04:11:18;;;;;;;0.00;0.00;;;;;;;15.42;100.00;101064.94;5086332;28;20111;-48
2023/09/01 04:13:43;;;;;;;0.00;0.00;;;;;;;15.45;100.00;101058.25;5086726;28;20021;-50
2023/09/01 04:16:09;;;;;;;0.00;0.00;;;;;;;15.46;100.00;101066.19;5070329;28;20028;-46
2023/09/01 04:18:34;;;;;;;0.00;0.00;;;;;;;15.47;100.00;101059.72;5073426;28;20047;-48
2023/09/01 04:21:00;;;;;;;0.00;0.00;;;;;;;15.46;100.00;101054.53;5076523;28;20437;-48
2023/09/01 04:23:25;;;;;;;0.00;0.00;;;;;;;15.39;100.00;101051.78;5070033;28;20036;-47
2023/09/01 04:25:51;;;;;;;0.00;0.00;;;;;;;15.38;100.00;101052.84;5070567;28;20033;-49
2023/09/01 04:28:16;;;;;;;0.00;0.00;;;;;;;15.37;100.00;101051.16;5070693;28;20077;-46
2023/09/01 04:30:43;;;;;;;0.00;0.00;;;;;;;15.36;100.00;101052.22;5079880;28;20020;-50
2023/09/01 04:33:08;;;;;;;0.00;0.00;;;;;;;15.28;100.00;101060.56;5077297;28;20020;-48
2023/09/01 04:35:34;;;;;;;0.00;0.00;;;;;;;15.21;100.00;101057.81;5081919;28;20735;-48
2023/09/01 04:37:59;;;;;;;0.00;0.00;;;;;;;15.22;100.00;101064.06;5068017;28;20076;-47
2023/09/01 04:40:26;;;;;;;0.00;0.00;;;;;;;15.23;100.00;101063.06;5075572;28;20024;-48
2023/09/01 04:42:51;;;;;;;0.00;0.00;;;;;;;15.27;100.00;101062.44;5080121;28;20032;-46
2023/09/01 04:45:17;;;;;;;0.00;0.00;;;;;;;15.34;100.00;101062.44;5076562;28;20482;-48
2023/09/01 04:47:42;;;;;;;0.00;0.00;;;;;;;15.33;100.00;101060.78;5071048;28;20024;-48
2023/09/01 04:50:08;;;;;;;0.00;0.00;;;;;;;15.32;100.00;101059.09;5071804;28;20036;-45
2023/09/01 04:52:34;;;;;;;0.00;0.00;;;;;;;15.34;100.00;101067.84;5068017;28;20032;-48
2023/09/01 04:55:00;;;;;;;0.00;0.00;;;;;;;15.34;100.00;101070.56;5070946;28;20463;-47
2023/09/01 04:57:25;;;;;;;0.00;0.00;;;;;;;15.29;100.00;101056.78;5068143;28;20046;-46
2023/09/01 04:59:51;;;;;;;0.00;0.00;;;;;;;15.29;100.00;101062.22;5068328;28;20521;-46
2023/09/01 05:02:16;;;;;;;0.00;0.00;;;;;;;15.30;100.00;101056.59;5067627;28;20417;-46
2023/09/01 05:04:42;;;;;;;0.00;0.00;;;;;;;15.35;100.00;101054.09;5068708;28;20024;-46
2023/09/01 05:07:07;;;;;;;0.00;0.00;;;;;;;15.41;100.00;101052.44;5063229;28;20064;-47
2023/09/01 05:09:33;;;;;;;0.00;0.00;;;;;;;15.46;100.00;101054.53;5067215;28;20068;-49
2023/09/01 05:11:59;;;;;;;0.00;0.00;;;;;;;15.46;100.00;101055.34;5071727;28;20055;-46
2023/09/01 05:14:25;;;;;;;0.00;0.00;;;;;;;15.53;100.00;101048.06;5053761;28;20471;-48
2023/09/01 05:16:50;;;;;;;0.00;0.00;;;;;;;15.43;100.00;101057.63;5070125;28;20067;-46
2023/09/01 05:19:15;;;;;;;0.00;0.00;;;;;;;15.46;100.00;101066.19;5068704;28;20112;-51
2023/09/01 05:21:41;;;;;;;0.00;0.00;;;;;;;15.47;100.00;101062.44;5067457;28;20028;-48
2023/09/01 05:24:06;;;;;;;0.00;0.00;;;;;;;15.45;100.00;101069.94;5069828;28;20027;-47
2023/09/01 05:26:31;;;;;;;0.00;0.00;;;;;;;15.38;100.00;101066.41;5050377;28;20037;-48
2023/09/01 05:28:57;;;;;;;0.00;0.00;;;;;;;15.41;100.00;101062.44;5070174;28;20104;-45
2023/09/01 05:31:22;;;;;;;0.00;0.00;;;;;;;15.51;100.00;101063.69;5069746;28;20028;-48
2023/09/01 05:33:47;;;;;;;0.00;0.00;;;;;;;15.61;100.00;101057.00;5069396;28;20536;-49
2023/09/01 05:36:13;;;;;;;0.00;0.00;;;;;;;15.63;100.00;101054.91;5069863;28;20064;-48
2023/09/01 05:38:38;;;;;;;0.00;0.00;;;;;;;15.63;100.00;101054.91;5069581;28;20025;-49
2023/09/01 05:41:05;;;;;;;0.00;0.00;;;;;;;15.58;100.00;101058.25;5083590;28;20565;-46
2023/09/01 05:43:31;;;;;;;0.00;0.00;;;;;;;15.59;100.00;101049.91;5075113;28;20035;-49
2023/09/01 05:45:56;;;;;;;0.00;0.00;;;;;;;15.63;100.00;101057.63;5080216;28;20024;-49
2023/09/01 05:48:22;;;;;;;0.00;0.00;;;;;;;15.66;100.00;101070.78;5070658;28;20069;-45
2023/09/01 05:50:47;;;;;;;0.00;0.00;;;;;;;15.61;100.00;101073.28;5069821;28;20257;-47
2023/09/01 05:53:12;;;;;;;0.00;0.00;;;;;;;15.57;100.00;101072.88;5069066;28;20029;-46
2023/09/01 05:55:38;;;;;;;0.00;0.00;;;;;;;15.54;100.00;101071.41;5072267;28;20047;-47
2023/09/01 05:58:03;;;;;;;0.00;0.00;;;;;;;15.48;100.00;101074.97;5072813;28;20459;-48
2023/09/01 06:00:29;;;;;;;0.00;0.00;;;;;;;15.40;100.00;101075.16;5074284;28;20028;-49
2023/09/01 06:02:55;;;;;;;0.00;0.00;;;;;;;15.51;100.00;101085.41;5062483;28;20079;-46
2023/09/01 06:05:21;;;;;;;0.00;0.00;;;;;;;15.54;100.00;101082.25;5073644;28;20071;-51
2023/09/01 06:07:47;;;;;;;0.00;0.00;;;;;;;15.66;100.00;101079.75;5071189;28;20060;-46
2023/09/01 06:10:12;;;;;;;0.00;0.00;;;;;;;15.68;100.00;101074.13;5074880;28;20047;-47
2023/09/01 06:12:38;;;;;;;0.00;0.00;;;;;;;15.66;100.00;101082.44;5093409;28;20453;-46
2023/09/01 06:15:05;;;;;;;0.00;0.00;;;;;;;15.62;100.00;101075.78;5073515;28;20032;-48
2023/09/01 06:17:30;;;;;;;0.00;0.00;;;;;;;15.71;100.00;101084.56;5073292;28;20035;-48
2023/09/01 06:19:55;;;;;;;0.00;0.00;;;;;;;15.67;100.00;101086.03;5072080;28;20032;-49
2023/09/01 06:22:21;;;;;;;0.00;0.00;;;;;;;15.62;100.00;101081.22;5074016;28;20028;-48
2023/09/01 06:24:47;;;;;;;0.00;0.00;;;;;;;15.72;100.00;101089.81;5072464;28;20443;-49
2023/09/01 06:27:12;;;;;;;0.00;0.00;;;;;;;15.70;100.00;101088.34;5072989;28;20094;-51
2023/09/01 06:29:37;;;;;;;0.00;0.00;;;;;;;15.81;100.00;101087.69;5072132;28;20078;-46
2023/09/01 06:32:03;;;;;;;0.00;0.00;;;;;;;15.87;100.00;101086.84;5072144;28;20387;-50
2023/09/01 06:34:29;;;;;;;0.00;0.00;;;;;;;15.81;100.00;101085.00;5072206;28;20120;-49
2023/09/01 06:36:55;;;;;;;0.00;0.00;;;;;;;15.82;100.00;101091.25;5072797;28;20221;-50
2023/09/01 06:39:20;;;;;;;0.00;0.00;;;;;;;15.87;100.00;101091.44;5054403;28;20035;-48
2023/09/01 06:41:46;;;;;;;0.00;0.00;;;;;;;15.88;100.00;101087.72;5072692;28;20025;-49
2023/09/01 06:44:11;;;;;;;0.00;0.00;;;;;;;15.94;100.00;101087.69;5072507;28;20085;-48
2023/09/01 06:46:37;;;;;;;0.00;0.00;;;;;;;16.02;100.00;101083.91;5070569;28;20033;-48
2023/09/01 06:49:02;;;;;;;0.00;0.00;;;;;;;15.89;100.00;101082.03;5072706;28;20060;-50
2023/09/01 06:51:29;;;;;;;0.00;0.00;;;;;;;16.00;100.00;101092.25;5072026;28;20025;-48
2023/09/01 06:53:54;;;;;;;0.00;0.00;;;;;;;16.05;100.00;101086.19;5068716;28;20058;-46
2023/09/01 06:56:20;;;;;;;0.00;0.00;;;;;;;16.05;100.00;101085.38;5072083;28;20325;-49
2023/09/01 06:58:45;;;;;;;0.00;0.00;;;;;;;16.10;100.00;101083.69;5072718;28;20032;-47
2023/09/01 07:01:11;;;;;;;0.00;0.00;;;;;;;16.16;100.00;101087.41;5071763;28;20035;-47
2023/09/01 07:03:37;;;;;;;0.00;0.00;;;;;;;16.07;100.00;101081.41;5070540;28;20153;-50
2023/09/01 07:06:03;;;;;;;0.00;0.00;;;;;;;16.04;100.00;101089.13;5070026;28;20033;-48
2023/09/01 07:08:29;;;;;;;0.00;0.00;;;;;;;16.09;100.00;101086.59;5063350;28;20025;-48
2023/09/01 07:11:04;;;;;;;0.00;0.00;;;;;;;16.00;100.00;101084.09;5052401;28;20448;-47
2023/09/01 07:13:30;;;;;;;0.00;0.00;;;;;;;15.80;100.00;101083.31;5058434;28;20164;-49
2023/09/01 07:15:56;;;;;;;0.00;0.00;;;;;;;15.76;100.00;101099.19;5064076;28;20166;-46
2023/09/01 07:18:25;;;;;;;0.00;0.00;;;;;;;15.75;100.00;101099.41;5061956;28;20555;-48
2023/09/01 07:20:51;;;;;;;0.00;0.00;;;;;;;15.80;100.00;101083.31;5054271;28;20029;-51
2023/09/01 07:23:16;;;;;;;0.00;0.00;;;;;;;15.82;100.00;101085.81;5068289;28;20449;-48
2023/09/01 07:25:44;;;;;;;0.00;0.00;;;;;;;15.89;100.00;101081.22;5070023;28;20078;-49
2023/09/01 07:28:11;;;;;;;0.00;0.00;;;;;;;15.90;100.00;101072.84;5055643;28;20436;-51
2023/09/01 07:30:36;;;;;;;0.00;0.00;;;;;;;15.86;100.00;101071.63;5071807;28;20064;-47
2023/09/01 07:33:02;;;;;;;0.00;0.00;;;;;;;15.88;100.00;101080.38;5054364;28;20363;-47
2023/09/01 07:35:28;;;;;;;0.00;0.00;;;;;;;15.84;100.00;101073.69;5069996;28;20054;-49
2023/09/01 07:37:53;;;;;;;0.00;0.00;;;;;;;15.96;100.00;101077.44;5053129;28;20036;-48
2023/09/01 07:40:19;;;;;;;0.00;0.00;;;;;;;16.08;100.00;101072.19;5070502;28;20422;-48
2023/09/01 07:42:44;;;;;;;0.00;0.00;;;;;;;16.18;100.00;101072.59;5056295;28;20484;-47
2023/09/01 07:45:09;;;;;;;0.00;0.00;;;;;;;16.22;100.00;101075.72;5068095;28;20499;-47
2023/09/01 07:47:35;;;;;;;0.00;0.00;;;;;;;16.16;100.00;101074.66;5078917;28;20036;-49
2023/09/01 07:50:00;;;;;;;0.00;0.00;;;;;;;15.99;100.00;101074.31;5061954;28;20063;-46
2023/09/01 07:52:26;;;;;;;0.00;0.00;;;;;;;15.98;100.00;101080.78;5069535;28;20390;-49
2023/09/01 07:54:51;;;;;;;0.00;0.00;;;;;;;15.92;100.00;101078.91;5069638;28;20509;-48
2023/09/01 07:57:16;;;;;;;0.00;0.00;;;;;;;16.01;100.00;101080.38;5051212;28;20028;-49
2023/09/01 07:59:42;;;;;;;0.00;0.00;;;;;;;16.04;100.00;101083.72;5058824;28;20021;-45
2023/09/01 08:02:07;;;;;;;0.00;0.00;;;;;;;15.90;100.00;101077.44;5057318;28;20075;-48
2023/09/01 08:04:33;;;;;;;0.00;0.00;;;;;;;15.95;100.00;101080.38;5072520;28;20021;-47
2023/09/01 08:06:59;;;;;;;0.00;0.00;;;;;;;16.04;100.00;101078.28;5067102;28;20037;-48
2023/09/01 08:09:25;;;;;;;0.00;0.00;;;;;;;16.15;100.00;101078.44;5062393;28;20072;-51
2023/09/01 08:11:51;;;;;;;0.00;0.00;;;;;;;16.25;100.00;101083.44;5054038;28;20591;-49
2023/09/01 08:14:16;;;;;;;0.00;0.00;;;;;;;16.21;100.00;101085.72;5063630;28;20048;-48
2023/09/01 08:16:41;;;;;;;0.00;0.00;;;;;;;16.08;100.00;101091.19;5042161;28;20101;-50
2023/09/01 08:19:07;;;;;;;0.00;0.00;;;;;;;16.12;100.00;101088.91;5054858;28;20024;-44
2023/09/01 08:21:33;;;;;;;0.00;0.00;;;;;;;16.18;100.00;101085.34;5056753;28;20031;-49
2023/09/01 08:23:59;;;;;;;0.00;0.00;;;;;;;16.21;100.00;101093.06;5068549;28;20016;-47
2023/09/01 08:26:25;;;;;;;0.00;0.00;;;;;;;15.98;100.00;101091.66;5072344;28;20043;-48
2023/09/01 08:28:50;;;;;;;0.00;0.00;;;;;;;16.03;100.00;101099.13;5063931;28;20036;-47
2023/09/01 08:31:16;;;;;;;0.00;0.00;;;;;;;16.10;100.00;101093.72;5064814;28;20067;-48
2023/09/01 08:33:41;;;;;;;0.00;0.00;;;;;;;16.13;100.00;101104.16;5034467;28;20474;-47
2023/09/01 08:36:07;;;;;;;0.00;0.00;;;;;;;16.26;100.00;101093.25;5058890;28;20029;-47
2023/09/01 08:38:32;;;;;;;0.00;0.00;;;;;;;16.37;100.00;101095.28;5067060;28;20044;-47
2023/09/01 08:41:03;;;;;;;0.00;0.00;;;;;;;16.42;100.00;101103.63;5066015;28;20037;-47
2023/09/01 08:43:32;;;;;;;0.00;0.00;;;;;;;16.50;100.00;101099.84;5051298;28;20025;-48
2023/09/01 08:45:58;;;;;;;0.00;0.00;;;;;;;16.62;100.00;101100.84;5070300;28;20070;-47
2023/09/01 08:48:24;;;;;;;0.00;0.00;;;;;;;16.61;100.00;101098.34;5046201;28;20435;-48
2023/09/01 08:50:49;;;;;;;0.00;0.00;;;;;;;16.71;100.00;101097.88;5052982;28;20033;-45
2023/09/01 08:53:15;;;;;;;0.00;0.00;;;;;;;16.74;100.00;101113.75;5031813;28;20028;-49
2023/09/01 08:55:40;;;;;;;0.00;0.00;;;;;;;16.75;100.00;101108.13;5070244;28;20430;-47
2023/09/01 08:58:05;;;;;;;0.00;0.00;;;;;;;16.44;100.00;101112.41;5049530;28;20024;-47
2023/09/01 09:00:31;;;;;;;0.00;0.00;;;;;;;16.52;100.00;101111.34;5067234;28;20026;-45
2023/09/01 09:02:56;;;;;;;0.00;0.00;;;;;;;16.60;100.00;101107.56;5054428;28;20059;-46
2023/09/01 09:05:23;;;;;;;0.00;0.00;;;;;;;16.63;100.00;101116.09;5064898;28;20332;-46
2023/09/01 09:08:03;;;;;;;0.00;0.00;;;;;;;16.60;100.00;101115.72;5035748;28;20041;-50
2023/09/01 09:10:37;;;;;;;0.00;0.00;;;;;;;16.62;100.00;101113.63;5062398;28;20056;-47
2023/09/01 09:13:24;;;;;;;0.00;0.00;;;;;;;16.73;100.00;101120.25;5035972;28;20029;-47
2023/09/01 09:16:07;;;;;;;0.00;0.00;;;;;;;16.82;100.00;101117.09;5053432;28;20131;-50
2023/09/01 09:18:33;;;;;;;0.00;0.00;;;;;;;16.62;100.00;101108.19;5044303;28;20056;-47
2023/09/01 09:20:59;;;;;;;0.00;0.00;;;;;;;16.54;100.00;101116.56;5062059;28;20116;-48
2023/09/01 09:23:44;;;;;;;0.00;0.00;;;;;;;16.57;100.00;101105.28;5063672;28;20035;-49
2023/09/01 09:26:10;;;;;;;0.00;0.00;;;;;;;16.81;100.00;101106.44;5061703;28;20394;-51
2023/09/01 09:28:36;;;;;;;0.00;0.00;;;;;;;17.02;100.00;101102.56;5062745;28;20432;-48
2023/09/01 09:31:02;;;;;;;0.00;0.00;;;;;;;17.24;100.00;101112.03;5047956;28;20038;-49
2023/09/01 09:33:32;;;;;;;0.00;0.00;;;;;;;17.62;100.00;101108.41;5066979;28;20814;-48
2023/09/01 09:35:58;;;;;;;0.00;0.00;;;;;;;18.06;100.00;101094.84;5063920;28;20409;-45
2023/09/01 09:38:24;;;;;;;0.00;0.00;;;;;;;18.25;100.00;101112.88;5065189;28;20020;-46
2023/09/01 09:41:07;;;;;;;0.00;0.00;;;;;;;18.38;100.00;101111.91;5051332;28;20082;-49
2023/09/01 09:43:46;;;;;;;0.00;0.00;;;;;;;18.15;100.00;101109.84;5065668;28;20036;-53
2023/09/01 09:46:13;;;;;;;0.00;0.00;;;;;;;18.00;100.00;101121.09;5048015;28;20135;-48
2023/09/01 09:48:39;;;;;;;0.00;0.00;;;;;;;18.11;100.00;101112.16;5064653;28;20028;-47
2023/09/01 09:51:07;;;;;;;0.00;0.00;;;;;;;18.15;100.00;101113.41;5061750;28;20072;-47
2023/09/01 09:53:34;;;;;;;0.00;0.00;;;;;;;18.06;100.00;101125.66;5068029;28;20518;-50
2023/09/01 09:56:08;;;;;;;0.10;0.00;;;;;;;18.15;100.00;101118.03;5067310;28;20055;-46
2023/09/01 09:58:39;;;;;;;0.00;0.00;;;;;;;18.30;100.00;101117.63;5048359;28;20462;-50
2023/09/01 10:01:11;;;;;;;0.00;0.00;;;;;;;18.16;100.00;101114.22;5067452;28;20035;-49
2023/09/01 10:03:37;;;;;;;0.00;0.00;;;;;;;18.08;100.00;101128.97;5049455;28;20109;-48
2023/09/01 10:06:05;;;;;;;0.00;0.00;;;;;;;17.86;100.00;101136.72;5069868;28;20107;-50
2023/09/01 10:08:32;;;;;;;0.00;0.00;;;;;;;17.72;100.00;101143.28;5068515;28;20017;-47
2023/09/01 10:10:59;;;;;;;0.00;0.00;;;;;;;17.38;100.00;101148.16;5068124;28;20021;-49
2023/09/01 10:13:24;;;;;;;0.00;0.00;;;;;;;17.57;100.00;101154.53;5049319;28;20445;-48
2023/09/01 10:15:51;;;;;;;0.00;0.00;;;;;;;17.50;100.00;101156.44;5049828;28;20064;-48
2023/09/01 10:18:19;;;;;;;0.00;0.00;;;;;;;17.47;100.00;101159.63;5049829;28;20620;-49
2023/09/01 10:20:44;;;;;;;;;;;;;;;17.55;100.00;101164.78;5049805;28;20705;-47
2023/09/01 10:23:12;;;;;;;0.00;0.00;;;;;;;17.67;100.00;101173.91;5066687;28;19977;-48
2023/09/01 10:25:38;;;;;;;0.00;0.00;;;;;;;17.57;100.00;101170.03;5064741;28;20025;-49
2023/09/01 10:28:13;;;;;;;0.00;0.00;;;;;;;17.71;100.00;101177.03;5049429;28;20027;-48
2023/09/01 10:30:43;;;;;;;0.00;0.00;;;;;;;17.87;100.00;101179.22;5066602;28;20082;-48
2023/09/01 10:33:16;;;;;;;0.00;0.00;;;;;;;17.94;100.00;101169.13;5066949;28;20036;-44
2023/09/01 10:35:51;;;;;;;0.00;0.00;;;;;;;17.78;100.00;101161.47;5067760;28;20072;-48
2023/09/01 10:38:35;;;;;;;0.00;0.00;;;;;;;18.06;100.00;101163.78;5067718;28;20032;-48
2023/09/01 10:41:00;;;;;;;0.00;0.00;;;;;;;18.35;100.00;101155.94;5072190;28;20122;-50
2023/09/01 10:43:31;;;;;;;0.00;0.00;;;;;;;18.68;100.00;101161.03;5072742;28;20025;-47
2023/09/01 10:46:12;;;;;;;0.00;0.00;;;;;;;18.71;100.00;101165.19;5053547;28;20158;-50
2023/09/01 10:48:47;;;;;;;0.00;0.00;;;;;;;19.06;100.00;101162.66;5071944;28;20082;-48
2023/09/01 10:51:43;;;;;;;0.00;0.00;;;;;;;19.42;100.00;101153.56;5072544;28;20039;-48
2023/09/01 10:54:14;;;;;;;0.00;0.00;;;;;;;19.58;100.00;101153.94;5040400;28;20045;-47
2023/09/01 10:57:02;;;;;;;0.00;0.00;;;;;;;19.04;100.00;101154.72;5070272;28;20111;-46
2023/09/01 10:59:29;;;;;;;0.00;0.00;;;;;;;19.12;100.00;101153.56;5072075;28;20038;-46
2023/09/01 11:01:54;;;;;;;0.00;0.00;;;;;;;19.03;100.00;101158.50;5071363;28;20020;-48
2023/09/01 11:04:22;;;;;;;0.00;0.00;;;;;;;19.17;100.00;101163.78;5053581;28;20035;-47
2023/09/01 11:07:00;;;;;;;0.00;0.00;;;;;;;19.36;100.00;101162.69;5071255;28;20483;-45
2023/09/01 11:09:34;;;;;;;0.00;0.00;;;;;;;19.31;100.00;101159.81;5070247;28;20558;-48
2023/09/01 11:12:07;;;;;;;0.00;0.00;;;;;;;19.81;100.00;101148.56;5070814;28;20083;-46
2023/09/01 11:14:34;;;;;;;0.00;0.00;;;;;;;20.02;100.00;101154.53;5070251;28;20041;-46
2023/09/01 11:17:00;;;;;;;0.00;0.00;;;;;;;19.91;100.00;101143.34;5068326;28;20487;-45